Athens Ben Epps Airport
KAHN : rendu visible

Aérodrome :











RETROUVEZ-NOUS SUR...

 
LOGIN :

S'inscrire | Disclaimer

   EN    FR    IT 

 









Légende :    VFR   VFR Marginal   IFR   IFR Intensif   IFR Très Intensif
Visi : 
Plafond : 
>= 8 km
>= 3000ft
5 à 8 km
1000 à 3000 ft
1500m à 5 km
500 à 1000 ft
800 à 1500m
200 à 500 ft
< 800m
< 200 ft
Symboles :   Orages  Brouillard  Fortes neiges  Fortes précipitations  Vent > 20 kt






- Altitude de l'aérodrome : 808 ft
- Code IATA : AHN


KAHN - Athens Ben Epps

DERNIER METAR :
  • 182351Z AUTO 16003KT 10SM BKN048 24/19 A2999 RMK AO2 SLP150 T02390194 10283 20239 53017

METARs EXPIRÉS :
  • 182251Z 00000KT 10SM SCT050 25/19 A2997 RMK AO2 SLP142 T02500194
  • 182151Z 00000KT 10SM FEW060 27/18 A2995 RMK AO2 SLP136 T02670178

TAF KAHN
Valide du 19 à 00h jusqu'au 20 à 00h UTC


182340Z 1900/1924 03006KT P6SM BKN050 BKN250
FM190700 06009KT P6SM BKN035 BKN150
FM191300 06010G15KT P6SM BKN040 OVC150
FM191600 06012G18KT P6SM BKN040 BKN250
FIR KZTL / Amérique du Nord



MET'MAP, la Météo Aéronautique d'un coup d'oeil ! - Copyright ORBIFLY Décembre 2007 - Disclaimer

ORBIFLY MET'MAP TEAM :

Programmation & Développement : Alexandra Zaïnal
Sur une idée originale de : Baudouin d'Aumeries
Assistance à la programmation : Marc-Olivier Méhu
Soutien technique & logistique : Manuel Goepfert

Contact : metmap@orbifly.com




SOURCES & CREDITS :

   NOAA       Earth
Advisory